ADDS TAF Data INFO
IDs: Format: Raw Decoded Include METARs

Data at: 0338 UTC 30 May 2017

Region: TOP
KATL 300330Z 3004/3106 29006KT P6SM FEW015 BKN120 BKN250
  TEMPO 3004/3007 5SM -SHRA BKN017 BKN050
  FM300700 25004KT P6SM SCT015 BKN050
  FM301000 25005KT P6SM BKN015
  FM301600 27008KT P6SM BKN035
  FM301800 27009KT P6SM BKN040
  PROB30 3018/3024 4SM -TSRA BKN020CB
  FM310000 29006KT P6SM SCT040 BKN150


KBOS 300207Z 3002/3106 03006KT P6SM OVC008
  FM301000 12003KT 3SM BR BKN008
  FM301300 12010KT P6SM BKN015
  FM302100 13010KT P6SM BKN020
  FM310300 17006KT P6SM VCSH BKN020


KBWI 292326Z 3000/3106 08008KT P6SM BKN160
  FM300300 11005KT P6SM BKN015
  FM300600 11005KT 3SM BR BKN005
  FM301500 12006KT P6SM OVC010
  FM302200 18004KT P6SM BKN020


KCLE 300305Z 3003/3106 19008KT P6SM SCT050 BKN120
  FM300400 20014G22KT 3SM -TSRA BKN025CB
  TEMPO 3004/3005 2SM -TSRA OVC012CB
  FM300600 20010KT P6SM VCSH SCT050 BKN120
  FM301000 21008KT P6SM SCT050
  FM301600 24012G18KT P6SM BKN050


KCLT 292339Z 3000/3024 32009KT P6SM -SHRA BKN060 BKN100
  FM300200 29004KT P6SM -SHRA SCT050 OVC070
  FM300800 VRB03KT P6SM OVC006
  TEMPO 3010/3012 OVC003
  FM301500 25004KT P6SM OVC015
  FM301700 25005KT P6SM BKN040
  PROB30 3017/3022 4SM -TSRA OVC035CB


KCVG 292341Z 3000/3106 23007KT P6SM SCT070 BKN250
  FM300200 21006KT P6SM SCT120
  FM300600 22005KT P6SM BKN090
  FM301300 27006KT P6SM SCT090
  FM301700 26012G18KT P6SM SCT050
  FM310100 26004KT P6SM SCT250


KDCA 292326Z 3000/3024 32006KT P6SM BKN200
  FM300200 09005KT P6SM BKN200
  FM300500 11005KT 4SM BR BKN010
  FM300900 09005KT 3SM BR OVC005
  FM301500 13005KT P6SM BKN020
  FM302000 15006KT P6SM BKN140


KDEN 300302Z 3003/3106 17008KT P6SM FEW140 FEW200
  FM301300 21008KT P6SM SKC
  FM301600 33006KT P6SM FEW090
  FM301900 03008KT P6SM FEW070 SCT120
  FM302200 08010KT P6SM VCTS SCT060CB BKN100
  FM310100 12008KT P6SM FEW070 BKN120


KDFW 300255Z 3003/3106 10007KT P6SM SCT250
  FM301600 12008KT P6SM SCT050


KDTW 300224Z 3002/3106 25006KT P6SM SCT080
  FM301400 23012KT P6SM SCT050
  FM301700 24014G22KT P6SM BKN060
  FM310000 22008KT P6SM BKN080


KEWR 300248Z 3003/3106 13005KT P6SM BKN009 OVC015
  FM300700 13005KT 6SM -DZ BR OVC007
  FM301400 13006KT P6SM OVC015
  FM301700 14008KT P6SM BKN020
  FM310200 14005KT 3SM BR BKN008 OVC012


KFLL 300255Z 3003/3024 VRB04KT P6SM SCT060
  FM301500 14010KT P6SM FEW040 SCT250
  FM301800 11012KT P6SM SCT035 SCT250


KIAD 292326Z 3000/3106 28004KT P6SM SCT060 BKN200
  FM300200 VRB04KT P6SM BKN200
  FM300600 10004KT 3SM BR BKN010
  FM300900 11004KT 3SM BR OVC005
  FM301500 15005KT P6SM BKN020
  FM301800 16006KT P6SM BKN250
  FM310400 VRB03KT P6SM BKN070


KIAH 300302Z 3003/3106 10005KT P6SM SCT025
  FM301300 05005KT P6SM BKN020
  FM301800 09010KT P6SM BKN035
  FM310300 09004KT P6SM SCT025


KJFK 300331Z 3004/3106 12005KT 6SM -DZ BR BKN009 OVC012
  FM300900 12005KT 3SM -DZ BR OVC005
  FM301400 13006KT 6SM BR OVC015
  FM301700 14012KT P6SM BKN020
  FM310200 14006KT 2SM BR OVC008


KLAS 300248Z 3003/3024 VRB04KT P6SM FEW150 BKN250
  FM300500 27006KT P6SM BKN250
  FM301500 07005KT P6SM BKN250
  FM302200 19012KT P6SM BKN250


KLAX 300316Z 3003/3106 26007KT P6SM BKN010
  FM300400 VRB03KT P6SM OVC010
  FM301300 13005KT P6SM OVC013
  FM301900 25012KT P6SM SCT015
  FM310100 25010KT P6SM BKN013


KLGA 300248Z 3003/3024 09006KT P6SM BKN015 OVC025
  FM300500 11005KT 6SM -DZ BR BKN009 OVC012
  FM300900 12006KT 5SM -DZ BR OVC006
  FM301400 13009KT P6SM OVC015
  FM301700 13011KT P6SM BKN020


KMCO 300242Z 3003/3024 VRB02KT P6SM FEW060 SCT250
  FM301300 25004KT P6SM SCT020 SCT060
  FM301800 VRB05KT P6SM VCSH SCT040 SCT070
  FM302230 11010KT P6SM VCSH SCT040 BKN120


KMDW 300304Z 3003/3024 26006KT P6SM VCSH FEW070 BKN100
  TEMPO 3004/3005 34010KT
  FM300500 26006KT P6SM SCT100
  FM301500 26015G23KT P6SM BKN050
  PROB30 3019/3024 6SM -SHRA


KMEM 300314Z 3003/3024 23004KT P6SM SCT250
  FM301500 27006KT P6SM SCT100 BKN250


KMIA 300255Z 3003/3024 VRB03KT P6SM SCT250
  FM301500 13008KT P6SM FEW040 SCT250
  FM301800 10012KT P6SM SCT035 SCT250


KMSP 300258Z 3003/3106 29009KT P6SM SCT040 BKN100
  FM301300 29010KT P6SM BKN025
  FM301600 29014G22KT P6SM VCSH BKN025 OVC050
  FM310000 29012KT P6SM BKN050


KORD 300304Z 3003/3106 26006KT P6SM VCSH FEW070 BKN100
  FM300350 34012KT P6SM VCSH FEW070 BKN100
  FM300500 26006KT P6SM SCT100
  FM301500 26015G23KT P6SM BKN050
  PROB30 3019/3024 6SM -SHRA
  FM310100 26008KT P6SM SCT050


KPDX 300317Z 3003/3024 30006KT P6SM FEW070
  FM300900 VRB03KT P6SM SCT020 SCT070
  FM301100 VRB04KT P6SM OVC020
  FM302000 22005KT P6SM BKN025 BKN200


KPHL 292334Z 3000/3106 10008KT P6SM OVC010
  FM300300 11005KT 5SM BR OVC010
  FM300500 13004KT 4SM BR OVC005
  TEMPO 3008/3012 2SM -DZ BR OVC003
  FM301600 14008KT 5SM BR OVC008
  FM310200 15004KT 2SM BR OVC005


KPHX 300255Z 3003/3024 29008KT P6SM OVC250
  FM300800 10006KT P6SM OVC250
  FM301600 13012KT P6SM OVC250
  FM302200 25007KT P6SM BKN250


KPIT 292330Z 3000/3106 23005KT P6SM SCT050
  TEMPO 3000/3001 6SM -SHRA BKN050
  FM300100 20005KT P6SM SCT060
  FM301600 23010KT P6SM VCSH BKN050


KSAN 300315Z 3003/3106 VRB04KT P6SM OVC013
  FM301900 22009KT P6SM BKN018
  FM310000 VRB04KT P6SM OVC015


KSEA 300308Z 3003/3106 24008KT P6SM SCT250
  FM300500 22005KT P6SM SCT250
  FM301100 21005KT P6SM OVC010
  FM301800 22008KT P6SM OVC020


KSFO 300303Z 3003/3106 26020G27KT P6SM FEW008 OVC011
  FM300600 27014KT P6SM OVC010
  FM301200 27014KT P6SM OVC007
  FM302000 28019G24KT P6SM BKN015


KSLC 300253Z 3003/3106 34007KT P6SM SKC
  FM300500 15003KT P6SM SKC
  FM300700 15007KT P6SM SKC
  FM301900 33008KT P6SM FEW090
  FM310400 15007KT P6SM SCT090


KSTL 292336Z 3000/3106 30006KT P6SM SKC
  FM301800 27008KT P6SM SCT060
  FM310200 VRB03KT P6SM SCT080


KTPA 300259Z 3003/3024 VRB03KT P6SM FEW250
  FM301400 25005KT P6SM SCT020 SCT250
  FM301800 25008KT P6SM SCT050 BKN250
  FM302100 28009KT P6SM SCT050 BKN250



Page loaded:  03:38 UTC  |   08:38 PM Pacific  |   09:38 PM Mountain  |   10:38 PM Central  |   11:38 PM Eastern

 

ADVISORIES

FORECASTS

FORECASTS

OBSERVATIONS

USER TOOLS

ABOUT US